sensor_id;sensor_type;location;lat;lon;timestamp;temperature;humidity
72114;SHT31;59989;46.220;19.888;2022-08-04T00:05:05;20.24;66.42
72114;SHT31;59989;46.220;19.888;2022-08-04T00:11:33;20.17;65.12
72114;SHT31;59989;46.220;19.888;2022-08-04T00:14:40;20.11;65.47
72114;SHT31;59989;46.220;19.888;2022-08-04T00:18:08;20.04;66.57
72114;SHT31;59989;46.220;19.888;2022-08-04T00:21:14;19.90;67.06
72114;SHT31;59989;46.220;19.888;2022-08-04T00:24:19;19.82;68.09
72114;SHT31;59989;46.220;19.888;2022-08-04T00:27:23;19.78;68.16
72114;SHT31;59989;46.220;19.888;2022-08-04T00:30:25;19.71;69.17
72114;SHT31;59989;46.220;19.888;2022-08-04T00:33:28;19.66;68.93
72114;SHT31;59989;46.220;19.888;2022-08-04T00:36:32;19.57;69.55
72114;SHT31;59989;46.220;19.888;2022-08-04T00:39:35;19.51;69.52
72114;SHT31;59989;46.220;19.888;2022-08-04T00:42:43;19.51;69.71
72114;SHT31;59989;46.220;19.888;2022-08-04T00:59:58;19.32;70.65
72114;SHT31;59989;46.220;19.888;2022-08-04T01:10:26;19.22;69.81
72114;SHT31;59989;46.220;19.888;2022-08-04T01:16:52;19.19;68.68
72114;SHT31;59989;46.220;19.888;2022-08-04T01:20:10;19.18;68.25
72114;SHT31;59989;46.220;19.888;2022-08-04T01:29:59;19.02;69.77
72114;SHT31;59989;46.220;19.888;2022-08-04T01:33:12;18.96;69.45
72114;SHT31;59989;46.220;19.888;2022-08-04T01:36:15;19.05;69.23
72114;SHT31;59989;46.220;19.888;2022-08-04T01:39:18;18.96;70.35
72114;SHT31;59989;46.220;19.888;2022-08-04T01:42:41;18.87;70.00
72114;SHT31;59989;46.220;19.888;2022-08-04T01:45:48;18.82;70.18
72114;SHT31;59989;46.220;19.888;2022-08-04T01:48:52;18.82;70.08
72114;SHT31;59989;46.220;19.888;2022-08-04T01:51:56;18.88;69.90
72114;SHT31;59989;46.220;19.888;2022-08-04T01:55:03;18.82;70.56
72114;SHT31;59989;46.220;19.888;2022-08-04T01:58:08;18.78;70.60
72114;SHT31;59989;46.220;19.888;2022-08-04T02:01:12;18.82;69.81
72114;SHT31;59989;46.220;19.888;2022-08-04T02:04:19;18.84;69.49
72114;SHT31;59989;46.220;19.888;2022-08-04T02:07:27;18.78;70.80
72114;SHT31;59989;46.220;19.888;2022-08-04T02:18:03;18.57;72.10
72114;SHT31;59989;46.220;19.888;2022-08-04T02:21:06;18.53;71.85
72114;SHT31;59989;46.220;19.888;2022-08-04T02:24:14;18.55;71.45
72114;SHT31;59989;46.220;19.888;2022-08-04T02:27:27;18.58;71.16
72114;SHT31;59989;46.220;19.888;2022-08-04T02:34:15;18.58;70.70
72114;SHT31;59989;46.220;19.888;2022-08-04T02:37:19;18.54;70.82
72114;SHT31;59989;46.220;19.888;2022-08-04T02:40:23;18.55;70.93
72114;SHT31;59989;46.220;19.888;2022-08-04T02:43:27;18.47;71.76
72114;SHT31;59989;46.220;19.888;2022-08-04T02:46:53;18.38;72.27
72114;SHT31;59989;46.220;19.888;2022-08-04T02:49:56;18.32;72.89
72114;SHT31;59989;46.220;19.888;2022-08-04T02:53:02;18.24;72.41
72114;SHT31;59989;46.220;19.888;2022-08-04T02:56:13;18.30;71.06
72114;SHT31;59989;46.220;19.888;2022-08-04T02:59:19;18.50;69.95
72114;SHT31;59989;46.220;19.888;2022-08-04T03:06:20;18.43;70.81
72114;SHT31;59989;46.220;19.888;2022-08-04T03:16:29;18.12;72.26
72114;SHT31;59989;46.220;19.888;2022-08-04T03:30:12;17.96;72.40
72114;SHT31;59989;46.220;19.888;2022-08-04T03:50:59;18.51;69.35
72114;SHT31;59989;46.220;19.888;2022-08-04T03:54:58;18.57;68.39
72114;SHT31;59989;46.220;19.888;2022-08-04T04:30:18;19.08;67.12
72114;SHT31;59989;46.220;19.888;2022-08-04T04:46:57;19.36;66.65
72114;SHT31;59989;46.220;19.888;2022-08-04T04:50:17;19.49;66.59
72114;SHT31;59989;46.220;19.888;2022-08-04T04:57:10;19.69;65.99
72114;SHT31;59989;46.220;19.888;2022-08-04T05:00:13;19.81;65.82
72114;SHT31;59989;46.220;19.888;2022-08-04T05:03:29;19.97;65.54
72114;SHT31;59989;46.220;19.888;2022-08-04T05:10:21;20.30;64.57
72114;SHT31;59989;46.220;19.888;2022-08-04T05:17:09;20.59;63.95
72114;SHT31;59989;46.220;19.888;2022-08-04T05:20:33;20.75;63.37
72114;SHT31;59989;46.220;19.888;2022-08-04T05:23:39;20.96;62.82
72114;SHT31;59989;46.220;19.888;2022-08-04T05:26:49;21.11;62.13
72114;SHT31;59989;46.220;19.888;2022-08-04T05:30:00;21.21;61.56
72114;SHT31;59989;46.220;19.888;2022-08-04T05:33:08;21.39;61.52
72114;SHT31;59989;46.220;19.888;2022-08-04T05:36:16;21.62;60.69
72114;SHT31;59989;46.220;19.888;2022-08-04T05:40:02;21.81;60.08
72114;SHT31;59989;46.220;19.888;2022-08-04T05:43:06;21.88;60.12
72114;SHT31;59989;46.220;19.888;2022-08-04T05:46:10;22.09;59.85
72114;SHT31;59989;46.220;19.888;2022-08-04T05:49:13;22.20;59.42
72114;SHT31;59989;46.220;19.888;2022-08-04T05:52:23;22.29;59.52
72114;SHT31;59989;46.220;19.888;2022-08-04T05:55:28;22.41;59.64
72114;SHT31;59989;46.220;19.888;2022-08-04T05:58:51;22.52;58.72
72114;SHT31;59989;46.220;19.888;2022-08-04T06:01:55;22.71;58.23
72114;SHT31;59989;46.220;19.888;2022-08-04T06:05:00;22.94;57.16
72114;SHT31;59989;46.220;19.888;2022-08-04T06:08:03;23.05;57.37
72114;SHT31;59989;46.220;19.888;2022-08-04T06:11:17;23.29;57.07
72114;SHT31;59989;46.220;19.888;2022-08-04T06:14:21;23.43;56.03
72114;SHT31;59989;46.220;19.888;2022-08-04T06:17:35;23.61;56.02
72114;SHT31;59989;46.220;19.888;2022-08-04T06:21:01;23.78;55.51
72114;SHT31;59989;46.220;19.888;2022-08-04T06:24:19;23.95;54.77
72114;SHT31;59989;46.220;19.888;2022-08-04T06:27:23;24.15;54.69
72114;SHT31;59989;46.220;19.888;2022-08-04T06:30:28;24.26;54.74
72114;SHT31;59989;46.220;19.888;2022-08-04T06:33:32;24.49;53.75
72114;SHT31;59989;46.220;19.888;2022-08-04T06:36:57;24.67;53.85
72114;SHT31;59989;46.220;19.888;2022-08-04T06:40:02;24.88;53.45
72114;SHT31;59989;46.220;19.888;2022-08-04T06:43:26;25.17;52.02
72114;SHT31;59989;46.220;19.888;2022-08-04T06:46:33;25.46;51.15
72114;SHT31;59989;46.220;19.888;2022-08-04T06:49:37;25.61;49.95
72114;SHT31;59989;46.220;19.888;2022-08-04T06:53:00;25.78;49.71
72114;SHT31;59989;46.220;19.888;2022-08-04T06:56:03;26.00;49.57
72114;SHT31;59989;46.220;19.888;2022-08-04T06:59:06;26.24;48.81
72114;SHT31;59989;46.220;19.888;2022-08-04T07:02:14;26.36;48.53
72114;SHT31;59989;46.220;19.888;2022-08-04T07:05:18;26.38;48.59
72114;SHT31;59989;46.220;19.888;2022-08-04T07:08:21;26.59;47.92
72114;SHT31;59989;46.220;19.888;2022-08-04T07:11:24;26.85;47.57
72114;SHT31;59989;46.220;19.888;2022-08-04T07:14:27;27.14;47.34
72114;SHT31;59989;46.220;19.888;2022-08-04T07:17:34;27.57;46.55
72114;SHT31;59989;46.220;19.888;2022-08-04T07:20:42;27.64;46.09
72114;SHT31;59989;46.220;19.888;2022-08-04T07:23:45;27.98;45.42
72114;SHT31;59989;46.220;19.888;2022-08-04T07:26:50;28.09;44.29
72114;SHT31;59989;46.220;19.888;2022-08-04T07:29:53;28.35;44.53
72114;SHT31;59989;46.220;19.888;2022-08-04T07:32:57;28.61;43.43
72114;SHT31;59989;46.220;19.888;2022-08-04T07:35:59;28.93;42.94
72114;SHT31;59989;46.220;19.888;2022-08-04T07:39:13;28.91;42.25
72114;SHT31;59989;46.220;19.888;2022-08-04T07:42:30;28.80;42.48
72114;SHT31;59989;46.220;19.888;2022-08-04T07:45:33;29.34;42.32
72114;SHT31;59989;46.220;19.888;2022-08-04T07:48:35;29.42;41.69
72114;SHT31;59989;46.220;19.888;2022-08-04T07:51:39;29.77;41.64
72114;SHT31;59989;46.220;19.888;2022-08-04T07:54:42;29.83;39.69
72114;SHT31;59989;46.220;19.888;2022-08-04T07:57:45;29.79;39.01
72114;SHT31;59989;46.220;19.888;2022-08-04T08:00:52;30.04;39.35
72114;SHT31;59989;46.220;19.888;2022-08-04T08:03:56;29.96;39.41
72114;SHT31;59989;46.220;19.888;2022-08-04T08:06:59;29.90;39.13
72114;SHT31;59989;46.220;19.888;2022-08-04T08:10:02;29.93;38.81
72114;SHT31;59989;46.220;19.888;2022-08-04T08:13:05;30.28;38.13
72114;SHT31;59989;46.220;19.888;2022-08-04T08:16:09;30.62;37.16
72114;SHT31;59989;46.220;19.888;2022-08-04T08:19:12;30.47;37.02
72114;SHT31;59989;46.220;19.888;2022-08-04T08:22:15;30.74;36.15
72114;SHT31;59989;46.220;19.888;2022-08-04T08:25:18;30.71;36.72
72114;SHT31;59989;46.220;19.888;2022-08-04T08:28:22;31.13;36.64
72114;SHT31;59989;46.220;19.888;2022-08-04T08:31:24;30.95;36.37
72114;SHT31;59989;46.220;19.888;2022-08-04T08:34:47;31.44;36.19
72114;SHT31;59989;46.220;19.888;2022-08-04T08:37:57;31.82;36.07
72114;SHT31;59989;46.220;19.888;2022-08-04T08:41:22;32.06;34.76
72114;SHT31;59989;46.220;19.888;2022-08-04T08:44:39;32.11;34.12
72114;SHT31;59989;46.220;19.888;2022-08-04T08:47:48;32.31;34.67
72114;SHT31;59989;46.220;19.888;2022-08-04T08:54:56;32.69;33.19
72114;SHT31;59989;46.220;19.888;2022-08-04T08:58:19;32.63;32.69
72114;SHT31;59989;46.220;19.888;2022-08-04T09:01:45;32.51;32.76
72114;SHT31;59989;46.220;19.888;2022-08-04T09:08:42;33.15;31.71
72114;SHT31;59989;46.220;19.888;2022-08-04T09:12:52;32.87;30.89
72114;SHT31;59989;46.220;19.888;2022-08-04T09:19:16;33.25;29.86
72114;SHT31;59989;46.220;19.888;2022-08-04T09:26:25;33.35;30.31
72114;SHT31;59989;46.220;19.888;2022-08-04T09:29:51;33.54;29.82
72114;SHT31;59989;46.220;19.888;2022-08-04T09:36:14;33.78;29.17
72114;SHT31;59989;46.220;19.888;2022-08-04T09:39:29;33.63;30.34
72114;SHT31;59989;46.220;19.888;2022-08-04T09:42:43;33.88;30.71
72114;SHT31;59989;46.220;19.888;2022-08-04T09:46:44;34.13;28.84
72114;SHT31;59989;46.220;19.888;2022-08-04T09:49:32;34.24;29.19
72114;SHT31;59989;46.220;19.888;2022-08-04T09:55:59;34.48;28.62
72114;SHT31;59989;46.220;19.888;2022-08-04T09:59:40;34.90;27.87
72114;SHT31;59989;46.220;19.888;2022-08-04T10:02:51;35.02;28.12
72114;SHT31;59989;46.220;19.888;2022-08-04T10:19:37;34.87;27.89
72114;SHT31;59989;46.220;19.888;2022-08-04T10:32:49;36.00;27.18
72114;SHT31;59989;46.220;19.888;2022-08-04T10:36:00;36.28;27.43
72114;SHT31;59989;46.220;19.888;2022-08-04T10:39:16;36.17;26.80
72114;SHT31;59989;46.220;19.888;2022-08-04T10:42:49;35.94;27.00
72114;SHT31;59989;46.220;19.888;2022-08-04T10:46:06;34.75;28.24
72114;SHT31;59989;46.220;19.888;2022-08-04T10:49:21;35.19;28.11
72114;SHT31;59989;46.220;19.888;2022-08-04T10:52:43;36.45;26.43
72114;SHT31;59989;46.220;19.888;2022-08-04T10:55:51;37.90;26.15
72114;SHT31;59989;46.220;19.888;2022-08-04T11:07:12;37.07;25.02
72114;SHT31;59989;46.220;19.888;2022-08-04T11:10:19;37.12;24.71
72114;SHT31;59989;46.220;19.888;2022-08-04T11:13:32;37.07;25.11
72114;SHT31;59989;46.220;19.888;2022-08-04T11:16:43;36.76;25.73
72114;SHT31;59989;46.220;19.888;2022-08-04T11:23:45;33.62;29.11
72114;SHT31;59989;46.220;19.888;2022-08-04T11:26:55;34.41;28.06
72114;SHT31;59989;46.220;19.888;2022-08-04T11:30:05;36.17;26.04
72114;SHT31;59989;46.220;19.888;2022-08-04T11:37:02;38.22;23.10
72114;SHT31;59989;46.220;19.888;2022-08-04T11:40:22;38.04;24.22
72114;SHT31;59989;46.220;19.888;2022-08-04T11:43:36;38.53;23.46
72114;SHT31;59989;46.220;19.888;2022-08-04T11:47:28;37.98;24.00
72114;SHT31;59989;46.220;19.888;2022-08-04T11:50:49;38.91;23.41
72114;SHT31;59989;46.220;19.888;2022-08-04T11:53:55;36.94;24.51
72114;SHT31;59989;46.220;19.888;2022-08-04T11:56:58;35.18;26.08
72114;SHT31;59989;46.220;19.888;2022-08-04T12:00:01;35.19;26.78
72114;SHT31;59989;46.220;19.888;2022-08-04T12:03:42;37.42;24.59
72114;SHT31;59989;46.220;19.888;2022-08-04T12:14:25;40.81;20.42
72114;SHT31;59989;46.220;19.888;2022-08-04T12:17:37;41.21;19.70
72114;SHT31;59989;46.220;19.888;2022-08-04T12:20:58;41.42;20.01
72114;SHT31;59989;46.220;19.888;2022-08-04T12:24:04;41.32;20.67
72114;SHT31;59989;46.220;19.888;2022-08-04T12:27:30;43.25;18.96
72114;SHT31;59989;46.220;19.888;2022-08-04T12:30:35;41.46;20.13
72114;SHT31;59989;46.220;19.888;2022-08-04T12:34:05;41.42;20.33
72114;SHT31;59989;46.220;19.888;2022-08-04T12:43:43;41.27;20.34
72114;SHT31;59989;46.220;19.888;2022-08-04T12:46:49;42.86;19.45
72114;SHT31;59989;46.220;19.888;2022-08-04T12:49:52;42.63;19.28
72114;SHT31;59989;46.220;19.888;2022-08-04T12:53:13;41.63;19.63
72114;SHT31;59989;46.220;19.888;2022-08-04T12:56:32;42.67;19.06
72114;SHT31;59989;46.220;19.888;2022-08-04T12:59:45;42.63;18.81
72114;SHT31;59989;46.220;19.888;2022-08-04T13:03:04;41.19;19.95
72114;SHT31;59989;46.220;19.888;2022-08-04T13:06:13;38.16;22.56
72114;SHT31;59989;46.220;19.888;2022-08-04T13:09:25;38.91;21.82
72114;SHT31;59989;46.220;19.888;2022-08-04T13:12:31;38.52;21.98
72114;SHT31;59989;46.220;19.888;2022-08-04T13:15:34;39.68;20.80
72114;SHT31;59989;46.220;19.888;2022-08-04T13:18:57;41.70;19.33
72114;SHT31;59989;46.220;19.888;2022-08-04T13:22:07;37.41;22.55
72114;SHT31;59989;46.220;19.888;2022-08-04T13:25:10;37.12;24.13
72114;SHT31;59989;46.220;19.888;2022-08-04T13:28:33;36.89;24.10
72114;SHT31;59989;46.220;19.888;2022-08-04T13:31:45;35.61;24.41
72114;SHT31;59989;46.220;19.888;2022-08-04T13:34:55;35.49;25.32
72114;SHT31;59989;46.220;19.888;2022-08-04T13:37:59;38.70;22.11
72114;SHT31;59989;46.220;19.888;2022-08-04T13:41:04;40.37;20.62
72114;SHT31;59989;46.220;19.888;2022-08-04T13:44:07;41.80;19.73
72114;SHT31;59989;46.220;19.888;2022-08-04T13:47:25;42.46;19.41
72114;SHT31;59989;46.220;19.888;2022-08-04T13:50:31;45.50;16.58
72114;SHT31;59989;46.220;19.888;2022-08-04T13:53:35;46.54;16.12
72114;SHT31;59989;46.220;19.888;2022-08-04T13:56:43;45.39;16.86
72114;SHT31;59989;46.220;19.888;2022-08-04T13:59:52;41.88;19.45
72114;SHT31;59989;46.220;19.888;2022-08-04T14:03:02;41.44;19.46
72114;SHT31;59989;46.220;19.888;2022-08-04T14:06:25;40.04;20.52
72114;SHT31;59989;46.220;19.888;2022-08-04T14:09:31;40.75;20.28
72114;SHT31;59989;46.220;19.888;2022-08-04T14:12:56;41.37;19.52
72114;SHT31;59989;46.220;19.888;2022-08-04T14:15:58;43.14;18.43
72114;SHT31;59989;46.220;19.888;2022-08-04T14:19:05;45.56;17.38
72114;SHT31;59989;46.220;19.888;2022-08-04T14:25:29;44.12;17.46
72114;SHT31;59989;46.220;19.888;2022-08-04T14:28:37;43.21;17.62
72114;SHT31;59989;46.220;19.888;2022-08-04T14:32:00;44.54;17.18
72114;SHT31;59989;46.220;19.888;2022-08-04T14:35:09;44.48;17.11
72114;SHT31;59989;46.220;19.888;2022-08-04T14:38:12;46.00;16.12
72114;SHT31;59989;46.220;19.888;2022-08-04T14:41:16;43.07;17.81
72114;SHT31;59989;46.220;19.888;2022-08-04T14:44:19;42.57;18.55
72114;SHT31;59989;46.220;19.888;2022-08-04T14:47:47;43.21;18.41
72114;SHT31;59989;46.220;19.888;2022-08-04T14:50:54;44.24;17.48
72114;SHT31;59989;46.220;19.888;2022-08-04T14:53:57;43.45;18.16
72114;SHT31;59989;46.220;19.888;2022-08-04T14:57:05;42.86;18.80
72114;SHT31;59989;46.220;19.888;2022-08-04T15:00:09;42.64;18.60
72114;SHT31;59989;46.220;19.888;2022-08-04T15:03:18;42.40;18.55
72114;SHT31;59989;46.220;19.888;2022-08-04T15:06:23;42.70;18.05
72114;SHT31;59989;46.220;19.888;2022-08-04T15:09:27;43.35;18.03
72114;SHT31;59989;46.220;19.888;2022-08-04T15:12:30;43.00;17.77
72114;SHT31;59989;46.220;19.888;2022-08-04T15:15:33;43.34;17.27
72114;SHT31;59989;46.220;19.888;2022-08-04T15:18:39;43.42;17.05
72114;SHT31;59989;46.220;19.888;2022-08-04T15:21:42;42.77;17.41
72114;SHT31;59989;46.220;19.888;2022-08-04T15:24:44;44.41;16.54
72114;SHT31;59989;46.220;19.888;2022-08-04T15:27:56;43.38;16.93
72114;SHT31;59989;46.220;19.888;2022-08-04T15:31:00;43.66;16.99
72114;SHT31;59989;46.220;19.888;2022-08-04T15:34:08;43.51;17.07
72114;SHT31;59989;46.220;19.888;2022-08-04T15:37:15;44.56;16.65
72114;SHT31;59989;46.220;19.888;2022-08-04T15:43:57;44.47;16.46
72114;SHT31;59989;46.220;19.888;2022-08-04T15:47:14;44.33;16.33
72114;SHT31;59989;46.220;19.888;2022-08-04T15:50:17;45.21;16.19
72114;SHT31;59989;46.220;19.888;2022-08-04T15:57:05;43.65;16.96
72114;SHT31;59989;46.220;19.888;2022-08-04T16:00:09;41.78;18.42
72114;SHT31;59989;46.220;19.888;2022-08-04T16:07:03;38.53;21.74
72114;SHT31;59989;46.220;19.888;2022-08-04T16:10:43;36.36;23.63
72114;SHT31;59989;46.220;19.888;2022-08-04T16:14:06;35.91;24.07
72114;SHT31;59989;46.220;19.888;2022-08-04T16:17:16;34.95;25.38
72114;SHT31;59989;46.220;19.888;2022-08-04T16:20:21;34.19;26.07
72114;SHT31;59989;46.220;19.888;2022-08-04T16:26:52;33.52;26.38
72114;SHT31;59989;46.220;19.888;2022-08-04T16:30:05;33.59;26.51
72114;SHT31;59989;46.220;19.888;2022-08-04T16:33:15;33.41;27.25
72114;SHT31;59989;46.220;19.888;2022-08-04T16:36:55;33.15;27.55
72114;SHT31;59989;46.220;19.888;2022-08-04T16:40:36;33.15;27.83
72114;SHT31;59989;46.220;19.888;2022-08-04T16:43:44;33.15;27.60
72114;SHT31;59989;46.220;19.888;2022-08-04T16:46:47;32.91;29.68
72114;SHT31;59989;46.220;19.888;2022-08-04T16:50:09;32.67;29.94
72114;SHT31;59989;46.220;19.888;2022-08-04T16:53:12;32.46;31.25
72114;SHT31;59989;46.220;19.888;2022-08-04T16:56:36;32.36;31.86
72114;SHT31;59989;46.220;19.888;2022-08-04T16:59:49;32.25;33.03
72114;SHT31;59989;46.220;19.888;2022-08-04T17:02:52;32.12;32.99
72114;SHT31;59989;46.220;19.888;2022-08-04T17:06:11;31.94;32.42
72114;SHT31;59989;46.220;19.888;2022-08-04T17:09:17;31.84;32.17
72114;SHT31;59989;46.220;19.888;2022-08-04T17:12:27;31.66;34.40
72114;SHT31;59989;46.220;19.888;2022-08-04T17:15:29;31.48;34.73
72114;SHT31;59989;46.220;19.888;2022-08-04T17:18:37;31.31;34.58
72114;SHT31;59989;46.220;19.888;2022-08-04T17:21:40;31.17;33.05
72114;SHT31;59989;46.220;19.888;2022-08-04T17:24:43;31.04;33.38
72114;SHT31;59989;46.220;19.888;2022-08-04T17:27:45;30.86;34.08
72114;SHT31;59989;46.220;19.888;2022-08-04T17:31:09;30.71;33.68
72114;SHT31;59989;46.220;19.888;2022-08-04T17:34:15;30.54;34.14
72114;SHT31;59989;46.220;19.888;2022-08-04T17:37:22;30.35;34.39
72114;SHT31;59989;46.220;19.888;2022-08-04T17:41:14;30.13;35.04
72114;SHT31;59989;46.220;19.888;2022-08-04T17:44:36;29.96;35.24
72114;SHT31;59989;46.220;19.888;2022-08-04T17:47:52;29.83;35.43
72114;SHT31;59989;46.220;19.888;2022-08-04T17:51:11;29.63;35.88
72114;SHT31;59989;46.220;19.888;2022-08-04T17:54:27;29.41;36.13
72114;SHT31;59989;46.220;19.888;2022-08-04T17:57:40;29.24;36.73
72114;SHT31;59989;46.220;19.888;2022-08-04T18:00:42;29.10;36.86
72114;SHT31;59989;46.220;19.888;2022-08-04T18:03:54;28.88;37.25
72114;SHT31;59989;46.220;19.888;2022-08-04T18:07:08;28.69;37.54
72114;SHT31;59989;46.220;19.888;2022-08-04T18:10:35;28.49;38.01
72114;SHT31;59989;46.220;19.888;2022-08-04T18:13:57;28.35;38.17
72114;SHT31;59989;46.220;19.888;2022-08-04T18:16:59;28.19;38.31
72114;SHT31;59989;46.220;19.888;2022-08-04T18:20:07;28.04;38.77
72114;SHT31;59989;46.220;19.888;2022-08-04T18:23:12;27.91;39.13
72114;SHT31;59989;46.220;19.888;2022-08-04T18:26:18;27.80;39.25
72114;SHT31;59989;46.220;19.888;2022-08-04T18:29:25;27.65;39.70
72114;SHT31;59989;46.220;19.888;2022-08-04T18:32:32;27.51;39.75
72114;SHT31;59989;46.220;19.888;2022-08-04T18:35:35;27.39;40.10
72114;SHT31;59989;46.220;19.888;2022-08-04T18:38:59;27.29;40.73
72114;SHT31;59989;46.220;19.888;2022-08-04T18:42:16;27.20;41.03
72114;SHT31;59989;46.220;19.888;2022-08-04T18:45:19;27.07;41.31
72114;SHT31;59989;46.220;19.888;2022-08-04T18:48:22;26.95;41.97
72114;SHT31;59989;46.220;19.888;2022-08-04T18:51:38;26.82;42.44
72114;SHT31;59989;46.220;19.888;2022-08-04T18:54:50;26.71;43.53
72114;SHT31;59989;46.220;19.888;2022-08-04T18:57:53;26.57;43.91
72114;SHT31;59989;46.220;19.888;2022-08-04T19:01:07;26.45;43.98
72114;SHT31;59989;46.220;19.888;2022-08-04T19:04:29;26.34;43.90
72114;SHT31;59989;46.220;19.888;2022-08-04T19:07:38;26.07;46.81
72114;SHT31;59989;46.220;19.888;2022-08-04T19:11:02;26.13;46.80
72114;SHT31;59989;46.220;19.888;2022-08-04T19:14:24;26.08;46.47
72114;SHT31;59989;46.220;19.888;2022-08-04T19:17:27;25.94;45.76
72114;SHT31;59989;46.220;19.888;2022-08-04T19:20:51;25.82;46.47
72114;SHT31;59989;46.220;19.888;2022-08-04T19:23:53;25.68;46.65
72114;SHT31;59989;46.220;19.888;2022-08-04T19:27:16;25.70;46.21
72114;SHT31;59989;46.220;19.888;2022-08-04T19:30:19;25.62;46.08
72114;SHT31;59989;46.220;19.888;2022-08-04T19:33:25;25.58;45.83
72114;SHT31;59989;46.220;19.888;2022-08-04T19:36:48;25.49;45.55
72114;SHT31;59989;46.220;19.888;2022-08-04T19:39:50;25.41;45.49
72114;SHT31;59989;46.220;19.888;2022-08-04T19:42:56;25.38;45.69
72114;SHT31;59989;46.220;19.888;2022-08-04T19:46:16;25.27;45.80
72114;SHT31;59989;46.220;19.888;2022-08-04T19:49:19;25.20;45.82
72114;SHT31;59989;46.220;19.888;2022-08-04T19:52:41;25.10;46.69
72114;SHT31;59989;46.220;19.888;2022-08-04T19:55:53;25.07;47.20
72114;SHT31;59989;46.220;19.888;2022-08-04T19:58:55;24.97;47.44
72114;SHT31;59989;46.220;19.888;2022-08-04T20:01:58;24.93;49.00
72114;SHT31;59989;46.220;19.888;2022-08-04T20:05:02;24.93;49.87
72114;SHT31;59989;46.220;19.888;2022-08-04T20:08:10;24.91;49.08
72114;SHT31;59989;46.220;19.888;2022-08-04T20:11:17;24.73;48.25
72114;SHT31;59989;46.220;19.888;2022-08-04T20:14:26;24.62;48.53
72114;SHT31;59989;46.220;19.888;2022-08-04T20:17:35;24.49;48.22
72114;SHT31;59989;46.220;19.888;2022-08-04T20:20:57;24.39;49.72
72114;SHT31;59989;46.220;19.888;2022-08-04T20:24:01;24.35;49.71
72114;SHT31;59989;46.220;19.888;2022-08-04T20:27:24;24.35;51.73
72114;SHT31;59989;46.220;19.888;2022-08-04T20:30:47;24.22;50.22
72114;SHT31;59989;46.220;19.888;2022-08-04T20:33:50;24.14;49.94
72114;SHT31;59989;46.220;19.888;2022-08-04T20:36:56;24.01;49.95
72114;SHT31;59989;46.220;19.888;2022-08-04T20:39:59;23.95;50.29
72114;SHT31;59989;46.220;19.888;2022-08-04T20:43:03;23.95;49.93
72114;SHT31;59989;46.220;19.888;2022-08-04T20:46:05;23.94;51.06
72114;SHT31;59989;46.220;19.888;2022-08-04T20:49:19;23.93;50.75
72114;SHT31;59989;46.220;19.888;2022-08-04T20:52:36;23.85;51.91
72114;SHT31;59989;46.220;19.888;2022-08-04T20:55:39;23.81;52.41
72114;SHT31;59989;46.220;19.888;2022-08-04T20:59:00;23.68;52.04
72114;SHT31;59989;46.220;19.888;2022-08-04T21:02:09;23.54;52.57
72114;SHT31;59989;46.220;19.888;2022-08-04T21:05:17;23.46;51.60
72114;SHT31;59989;46.220;19.888;2022-08-04T21:08:20;23.39;51.44
72114;SHT31;59989;46.220;19.888;2022-08-04T21:11:28;23.36;51.70
72114;SHT31;59989;46.220;19.888;2022-08-04T21:14:34;23.29;51.99
72114;SHT31;59989;46.220;19.888;2022-08-04T21:17:37;23.22;52.30
72114;SHT31;59989;46.220;19.888;2022-08-04T21:20:59;23.13;52.18
72114;SHT31;59989;46.220;19.888;2022-08-04T21:24:03;23.06;51.98
72114;SHT31;59989;46.220;19.888;2022-08-04T21:27:05;23.05;51.99
72114;SHT31;59989;46.220;19.888;2022-08-04T21:30:11;23.00;51.96
72114;SHT31;59989;46.220;19.888;2022-08-04T21:33:26;23.02;52.30
72114;SHT31;59989;46.220;19.888;2022-08-04T21:36:49;23.03;54.17
72114;SHT31;59989;46.220;19.888;2022-08-04T21:39:53;23.03;53.31
72114;SHT31;59989;46.220;19.888;2022-08-04T21:43:00;22.96;51.82
72114;SHT31;59989;46.220;19.888;2022-08-04T21:46:04;22.96;52.11
72114;SHT31;59989;46.220;19.888;2022-08-04T21:49:06;22.89;51.38
72114;SHT31;59989;46.220;19.888;2022-08-04T21:52:10;22.84;51.50
72114;SHT31;59989;46.220;19.888;2022-08-04T21:55:12;22.84;51.55
72114;SHT31;59989;46.220;19.888;2022-08-04T21:58:15;22.87;51.56
72114;SHT31;59989;46.220;19.888;2022-08-04T22:01:18;22.89;52.87
72114;SHT31;59989;46.220;19.888;2022-08-04T22:04:40;22.92;53.45
72114;SHT31;59989;46.220;19.888;2022-08-04T22:07:45;22.82;53.51
72114;SHT31;59989;46.220;19.888;2022-08-04T22:10:52;22.72;54.48
72114;SHT31;59989;46.220;19.888;2022-08-04T22:14:04;22.65;55.47
72114;SHT31;59989;46.220;19.888;2022-08-04T22:17:12;22.54;56.04
72114;SHT31;59989;46.220;19.888;2022-08-04T22:20:35;22.45;54.45
72114;SHT31;59989;46.220;19.888;2022-08-04T22:23:38;22.40;53.56
72114;SHT31;59989;46.220;19.888;2022-08-04T22:26:48;22.37;53.01
72114;SHT31;59989;46.220;19.888;2022-08-04T22:29:52;22.34;54.66
72114;SHT31;59989;46.220;19.888;2022-08-04T22:32:55;22.30;53.50
72114;SHT31;59989;46.220;19.888;2022-08-04T22:35:57;22.24;53.98
72114;SHT31;59989;46.220;19.888;2022-08-04T22:39:00;22.29;56.09
72114;SHT31;59989;46.220;19.888;2022-08-04T22:42:08;22.30;56.64
72114;SHT31;59989;46.220;19.888;2022-08-04T22:45:14;22.31;57.41
72114;SHT31;59989;46.220;19.888;2022-08-04T22:48:17;22.25;57.54
72114;SHT31;59989;46.220;19.888;2022-08-04T22:51:20;22.20;57.90
72114;SHT31;59989;46.220;19.888;2022-08-04T22:54:24;22.12;58.00
72114;SHT31;59989;46.220;19.888;2022-08-04T22:57:30;21.97;58.47
72114;SHT31;59989;46.220;19.888;2022-08-04T23:00:53;21.86;58.19
72114;SHT31;59989;46.220;19.888;2022-08-04T23:03:59;21.85;59.25
72114;SHT31;59989;46.220;19.888;2022-08-04T23:07:02;21.75;58.71
72114;SHT31;59989;46.220;19.888;2022-08-04T23:10:10;21.71;59.41
72114;SHT31;59989;46.220;19.888;2022-08-04T23:13:13;21.66;59.64
72114;SHT31;59989;46.220;19.888;2022-08-04T23:16:17;21.65;60.21
72114;SHT31;59989;46.220;19.888;2022-08-04T23:19:20;21.51;61.44
72114;SHT31;59989;46.220;19.888;2022-08-04T23:22:31;21.34;61.09
72114;SHT31;59989;46.220;19.888;2022-08-04T23:25:44;21.24;60.77
72114;SHT31;59989;46.220;19.888;2022-08-04T23:29:06;21.17;62.19
72114;SHT31;59989;46.220;19.888;2022-08-04T23:32:09;21.11;63.02
72114;SHT31;59989;46.220;19.888;2022-08-04T23:35:14;21.03;62.65
72114;SHT31;59989;46.220;19.888;2022-08-04T23:38:16;20.91;63.78
72114;SHT31;59989;46.220;19.888;2022-08-04T23:41:33;20.79;65.32